createdAt,value
2023-12-29T00:02:01.599Z,5.70
2023-12-29T00:04:28.503Z,5.80
2023-12-29T00:07:02.545Z,5.50
2023-12-29T00:09:30.243Z,5.50
2023-12-29T00:11:57.006Z,5.40
2023-12-29T00:14:23.805Z,5.50
2023-12-29T00:16:50.580Z,5.60
2023-12-29T00:19:17.638Z,5.80
2023-12-29T00:21:44.641Z,5.80
2023-12-29T00:24:11.794Z,5.80
2023-12-29T00:26:38.609Z,5.70
2023-12-29T00:29:07.155Z,6.00
2023-12-29T00:31:34.012Z,7.70
2023-12-29T00:34:00.869Z,5.60
2023-12-29T00:36:27.876Z,5.40
2023-12-29T00:38:54.847Z,5.40
2023-12-29T00:41:21.554Z,5.40
2023-12-29T00:43:48.323Z,5.60
2023-12-29T00:46:18.153Z,5.60
2023-12-29T00:48:45.477Z,5.60
2023-12-29T00:51:12.265Z,5.70
2023-12-29T00:53:39.150Z,5.70
2023-12-29T00:56:14.483Z,5.80
2023-12-29T00:58:41.413Z,5.80
2023-12-29T01:01:13.186Z,5.70
2023-12-29T01:03:40.760Z,5.80
2023-12-29T01:06:07.703Z,5.80
2023-12-29T01:08:34.762Z,5.80
2023-12-29T01:11:01.612Z,5.70
2023-12-29T01:13:28.913Z,5.50
2023-12-29T01:15:55.766Z,5.60
2023-12-29T01:18:22.666Z,5.50
2023-12-29T01:20:49.535Z,5.50
2023-12-29T01:23:16.294Z,5.50
2023-12-29T01:25:43.031Z,5.50
2023-12-29T01:28:10.228Z,5.60
2023-12-29T01:30:37.106Z,5.60
2023-12-29T01:33:04.023Z,5.70
2023-12-29T01:35:30.900Z,5.70
2023-12-29T01:37:58.336Z,5.80
2023-12-29T01:40:25.338Z,5.60
2023-12-29T01:42:52.141Z,5.60
2023-12-29T01:45:27.616Z,5.60
2023-12-29T01:47:54.892Z,5.50
2023-12-29T01:50:23.641Z,5.40
2023-12-29T01:52:53.195Z,5.30
2023-12-29T01:55:24.770Z,5.30
2023-12-29T01:57:52.216Z,5.30
2023-12-29T02:00:19.788Z,5.10
2023-12-29T02:02:50.892Z,4.90
2023-12-29T02:05:18.780Z,4.80
2023-12-29T02:07:45.867Z,5.00
2023-12-29T02:10:16.762Z,5.20
2023-12-29T02:12:43.655Z,5.40
2023-12-29T02:15:10.783Z,5.40
2023-12-29T02:17:44.681Z,5.50
2023-12-29T02:20:12.516Z,5.50
2023-12-29T02:22:39.268Z,5.60
2023-12-29T02:25:07.320Z,5.70
2023-12-29T02:27:40.014Z,5.80
2023-12-29T02:30:42.239Z,5.80
2023-12-29T02:33:14.989Z,5.70
2023-12-29T02:35:44.737Z,5.80
2023-12-29T02:38:12.593Z,5.80
2023-12-29T02:40:39.695Z,5.80
2023-12-29T02:43:06.505Z,5.80
2023-12-29T02:45:33.333Z,5.90
2023-12-29T02:48:00.498Z,5.90
2023-12-29T02:50:27.649Z,5.90
2023-12-29T02:52:54.647Z,6.00
2023-12-29T02:55:21.500Z,6.10
2023-12-29T02:57:49.594Z,6.00
2023-12-29T03:00:16.751Z,6.00
2023-12-29T03:02:43.902Z,6.10
2023-12-29T03:05:10.609Z,6.10
2023-12-29T03:07:37.550Z,6.20
2023-12-29T03:10:04.862Z,6.10
2023-12-29T03:12:31.927Z,6.10
2023-12-29T03:14:58.937Z,6.10
2023-12-29T03:17:25.878Z,6.00
2023-12-29T03:19:53.824Z,6.00
2023-12-29T03:22:21.922Z,6.00
2023-12-29T03:24:49.636Z,6.00
2023-12-29T03:27:16.530Z,5.90
2023-12-29T03:29:43.330Z,6.00
2023-12-29T03:32:10.650Z,5.90
2023-12-29T03:34:37.602Z,5.90
2023-12-29T03:37:04.703Z,5.90
2023-12-29T03:39:31.474Z,5.90
2023-12-29T03:41:58.240Z,5.90
2023-12-29T03:44:25.045Z,5.90
2023-12-29T03:46:52.571Z,5.90
2023-12-29T03:49:20.729Z,5.90
2023-12-29T03:51:47.603Z,5.90
2023-12-29T03:54:14.404Z,5.90
2023-12-29T03:56:41.139Z,6.00
2023-12-29T03:59:08.072Z,6.00
2023-12-29T04:01:35.549Z,6.00
2023-12-29T04:04:02.563Z,5.90
2023-12-29T04:06:29.439Z,5.90
2023-12-29T04:08:56.240Z,5.90
2023-12-29T04:11:22.954Z,5.80
2023-12-29T04:13:49.741Z,5.80
2023-12-29T04:16:16.674Z,5.80
2023-12-29T04:18:43.549Z,5.70
2023-12-29T04:21:15.278Z,5.70
2023-12-29T04:23:44.768Z,5.70
2023-12-29T04:26:11.730Z,5.70
2023-12-29T04:28:38.620Z,5.70
2023-12-29T04:31:05.557Z,5.70
2023-12-29T04:33:32.541Z,5.70
2023-12-29T04:35:59.359Z,5.70
2023-12-29T04:38:26.088Z,5.60
2023-12-29T04:40:52.851Z,5.60
2023-12-29T04:43:19.574Z,5.70
2023-12-29T04:45:46.548Z,5.70
2023-12-29T04:48:13.507Z,5.60
2023-12-29T04:50:40.313Z,5.70
2023-12-29T04:53:07.076Z,5.70
2023-12-29T04:55:33.841Z,5.70
2023-12-29T04:58:00.780Z,5.70
2023-12-29T05:00:27.642Z,5.80
2023-12-29T05:02:54.348Z,5.80
2023-12-29T05:05:21.053Z,5.80
2023-12-29T05:07:47.793Z,5.90
2023-12-29T05:10:14.772Z,5.90
2023-12-29T05:12:41.836Z,5.90
2023-12-29T05:15:08.835Z,5.90
2023-12-29T05:17:35.618Z,6.00
2023-12-29T05:20:02.736Z,5.90
2023-12-29T05:22:29.520Z,6.00
2023-12-29T05:25:00.536Z,6.10
2023-12-29T05:27:28.434Z,6.20
2023-12-29T05:29:55.412Z,6.10
2023-12-29T05:32:22.406Z,6.30
2023-12-29T05:34:49.393Z,6.30
2023-12-29T05:37:16.393Z,6.70
2023-12-29T05:39:44.109Z,6.40
2023-12-29T05:42:11.054Z,6.50
2023-12-29T05:44:38.747Z,6.60
2023-12-29T05:47:08.732Z,6.60
2023-12-29T05:49:40.018Z,6.50
2023-12-29T05:52:07.627Z,7.00
2023-12-29T05:54:35.472Z,6.60
2023-12-29T05:57:02.897Z,6.50
2023-12-29T05:59:29.861Z,6.50
2023-12-29T06:01:57.472Z,6.40
2023-12-29T06:04:24.565Z,6.40
2023-12-29T06:06:51.426Z,6.30
2023-12-29T06:09:18.667Z,6.30
2023-12-29T06:11:45.475Z,6.30
2023-12-29T06:14:12.395Z,6.20
2023-12-29T06:16:39.172Z,6.20
2023-12-29T06:19:06.047Z,6.20
2023-12-29T06:21:32.984Z,6.10
2023-12-29T06:23:59.743Z,6.10
2023-12-29T06:26:26.596Z,6.10
2023-12-29T06:28:53.364Z,6.10
2023-12-29T06:31:20.353Z,6.00
2023-12-29T06:33:47.319Z,6.10
2023-12-29T06:36:15.377Z,6.00
2023-12-29T06:38:42.459Z,6.00
2023-12-29T06:41:09.281Z,6.10
2023-12-29T06:43:36.449Z,6.10
2023-12-29T06:46:03.406Z,6.10
2023-12-29T06:48:30.248Z,6.00
2023-12-29T06:50:57.363Z,6.00
2023-12-29T06:53:24.063Z,6.00
2023-12-29T06:55:50.991Z,6.00
2023-12-29T06:58:18.017Z,5.90
2023-12-29T07:00:45.437Z,5.80
2023-12-29T07:03:18.589Z,5.90
2023-12-29T07:05:45.516Z,6.00
2023-12-29T07:08:15.694Z,6.00
2023-12-29T07:10:42.747Z,6.00
2023-12-29T07:13:09.841Z,6.00
2023-12-29T07:15:36.724Z,6.00
2023-12-29T07:18:03.870Z,5.90
2023-12-29T07:20:31.861Z,5.90
2023-12-29T07:22:58.648Z,5.80
2023-12-29T07:25:25.500Z,5.80
2023-12-29T07:27:53.868Z,5.70
2023-12-29T07:30:20.827Z,5.60
2023-12-29T07:32:47.765Z,6.10
2023-12-29T07:35:18.548Z,5.40
2023-12-29T07:37:45.648Z,5.60
2023-12-29T07:40:13.252Z,5.80
2023-12-29T07:42:45.707Z,5.90
2023-12-29T07:45:12.653Z,5.80
2023-12-29T07:47:39.572Z,6.20
2023-12-29T07:50:07.008Z,7.10
2023-12-29T07:52:33.972Z,5.90
2023-12-29T07:55:00.955Z,5.90
2023-12-29T07:57:27.965Z,5.90
2023-12-29T07:59:54.964Z,7.10
2023-12-29T08:02:21.870Z,6.00
2023-12-29T08:04:49.819Z,6.40
2023-12-29T08:07:17.237Z,6.00
2023-12-29T08:09:47.136Z,6.10
2023-12-29T08:12:14.709Z,6.10
2023-12-29T08:14:41.741Z,6.10
2023-12-29T08:17:10.084Z,6.80
2023-12-29T08:19:37.668Z,6.30
2023-12-29T08:22:04.754Z,6.30
2023-12-29T08:24:31.734Z,6.30
2023-12-29T08:26:58.971Z,6.30
2023-12-29T08:29:26.827Z,6.50
2023-12-29T08:31:53.927Z,6.40
2023-12-29T08:34:21.253Z,6.60
2023-12-29T08:36:48.460Z,6.50
2023-12-29T08:39:16.227Z,6.50
2023-12-29T08:41:43.244Z,6.60
2023-12-29T08:44:10.100Z,6.60
2023-12-29T08:46:37.133Z,6.50
2023-12-29T08:49:04.298Z,6.50
2023-12-29T08:51:31.552Z,6.60
2023-12-29T08:53:58.325Z,6.70
2023-12-29T08:56:27.538Z,6.60
2023-12-29T08:58:55.963Z,6.80
2023-12-29T09:01:23.137Z,6.90
2023-12-29T09:03:50.591Z,6.90
2023-12-29T09:06:18.073Z,7.00
2023-12-29T09:08:46.870Z,7.10
2023-12-29T09:11:14.716Z,7.30
2023-12-29T09:13:43.083Z,7.30
2023-12-29T09:16:10.000Z,7.30
2023-12-29T09:18:37.223Z,7.40
2023-12-29T09:21:04.900Z,8.10
2023-12-29T09:23:33.678Z,7.20
2023-12-29T09:26:01.713Z,7.20
2023-12-29T09:28:31.142Z,8.60
2023-12-29T09:30:58.786Z,7.30
2023-12-29T09:33:26.225Z,7.30
2023-12-29T09:35:55.984Z,7.40
2023-12-29T09:38:25.908Z,9.10
2023-12-29T09:40:57.437Z,8.00
2023-12-29T09:43:37.120Z,9.00
2023-12-29T09:46:06.927Z,7.50
2023-12-29T09:48:35.429Z,7.40
2023-12-29T09:51:02.366Z,8.10
2023-12-29T09:53:31.795Z,8.20
2023-12-29T09:56:04.564Z,7.70
2023-12-29T09:58:39.645Z,7.70
2023-12-29T10:01:11.475Z,7.80
2023-12-29T10:03:47.005Z,7.90
2023-12-29T10:06:15.964Z,8.00
2023-12-29T10:08:47.522Z,8.00
2023-12-29T10:11:16.470Z,8.10
2023-12-29T10:13:44.653Z,8.20
2023-12-29T10:16:33.537Z,8.30
2023-12-29T10:19:24.561Z,8.50
2023-12-29T10:22:27.657Z,8.60
2023-12-29T10:24:55.710Z,8.90
2023-12-29T10:27:24.102Z,9.00
2023-12-29T10:29:50.944Z,8.90
2023-12-29T10:32:17.678Z,9.00
2023-12-29T10:34:44.506Z,9.00
2023-12-29T10:37:15.672Z,9.20
2023-12-29T10:39:57.222Z,10.10
2023-12-29T10:42:23.983Z,9.20
2023-12-29T10:45:09.770Z,9.20
2023-12-29T10:47:36.818Z,9.10
2023-12-29T10:50:07.880Z,9.10
2023-12-29T10:52:34.786Z,9.20
2023-12-29T10:55:15.065Z,9.30
2023-12-29T10:57:42.054Z,9.40
2023-12-29T11:00:09.591Z,9.60
2023-12-29T11:02:36.950Z,9.70
2023-12-29T11:05:05.108Z,9.60
2023-12-29T11:07:39.670Z,9.60
2023-12-29T11:10:07.559Z,9.90
2023-12-29T11:12:40.595Z,10.00
2023-12-29T11:15:08.389Z,10.10
2023-12-29T11:17:36.601Z,10.20
2023-12-29T11:20:06.032Z,10.30
2023-12-29T11:22:33.609Z,10.30
2023-12-29T11:25:01.817Z,10.40
2023-12-29T11:27:30.883Z,10.50
2023-12-29T11:30:00.171Z,10.60
2023-12-29T11:32:46.545Z,10.70
2023-12-29T11:35:19.588Z,10.80
2023-12-29T11:37:47.333Z,10.70
2023-12-29T11:40:21.625Z,10.70
2023-12-29T11:42:53.549Z,10.60
2023-12-29T11:45:29.830Z,10.50
2023-12-29T11:47:58.191Z,10.40
2023-12-29T11:50:37.634Z,10.30
2023-12-29T11:53:04.786Z,10.20
2023-12-29T11:55:36.499Z,10.10
2023-12-29T11:58:06.095Z,10.20
2023-12-29T12:00:47.700Z,10.10
2023-12-29T12:03:20.500Z,10.10
2023-12-29T12:05:49.348Z,10.20
2023-12-29T12:08:28.568Z,10.30
2023-12-29T12:10:56.138Z,10.50
2023-12-29T12:13:45.962Z,10.60
2023-12-29T12:16:43.787Z,10.50
2023-12-29T12:19:11.098Z,10.50
2023-12-29T12:21:39.099Z,10.50
2023-12-29T12:24:06.517Z,10.50
2023-12-29T12:26:33.336Z,10.50
2023-12-29T12:29:00.685Z,10.30
2023-12-29T12:31:28.172Z,10.40
2023-12-29T12:33:58.805Z,10.40
2023-12-29T12:36:27.604Z,10.40
2023-12-29T12:38:58.581Z,10.30
2023-12-29T12:41:26.614Z,10.40
2023-12-29T12:44:13.660Z,10.30
2023-12-29T12:46:49.539Z,10.30
2023-12-29T12:49:17.310Z,10.20
2023-12-29T12:51:44.548Z,10.30
2023-12-29T12:54:12.354Z,10.40
2023-12-29T12:56:39.441Z,10.40
2023-12-29T12:59:06.415Z,10.30
2023-12-29T13:01:37.577Z,11.00
2023-12-29T13:04:05.846Z,11.00
2023-12-29T13:06:42.344Z,11.30
2023-12-29T13:09:12.958Z,10.20
2023-12-29T13:11:41.885Z,10.30
2023-12-29T13:14:08.977Z,10.30
2023-12-29T13:16:42.642Z,10.40
2023-12-29T13:19:25.385Z,10.30
2023-12-29T13:21:57.380Z,10.40
2023-12-29T13:24:30.218Z,10.40
2023-12-29T13:27:02.942Z,10.30
2023-12-29T13:29:31.614Z,10.20
2023-12-29T13:32:11.264Z,10.30
2023-12-29T13:34:53.999Z,10.40
2023-12-29T13:37:39.817Z,10.30
2023-12-29T13:40:15.848Z,10.40
2023-12-29T13:42:45.084Z,10.20
2023-12-29T13:45:12.700Z,10.20
2023-12-29T13:47:40.210Z,10.10
2023-12-29T13:50:11.166Z,10.20
2023-12-29T13:52:41.911Z,10.20
2023-12-29T13:55:11.013Z,10.20
2023-12-29T13:57:38.223Z,10.00
2023-12-29T14:00:17.793Z,10.20
2023-12-29T14:02:56.710Z,10.30
2023-12-29T14:05:40.981Z,10.30
2023-12-29T14:08:17.712Z,10.10
2023-12-29T14:10:44.475Z,10.10
2023-12-29T14:13:16.645Z,10.10
2023-12-29T14:15:46.319Z,10.00
2023-12-29T14:18:32.785Z,10.00
2023-12-29T14:21:00.464Z,10.00
2023-12-29T14:23:27.293Z,10.00
2023-12-29T14:25:54.023Z,10.00
2023-12-29T14:28:23.466Z,10.00
2023-12-29T14:30:51.728Z,10.00
2023-12-29T14:33:18.589Z,10.00
2023-12-29T14:35:45.321Z,10.10
2023-12-29T14:38:17.862Z,10.00
2023-12-29T14:40:46.643Z,10.30
2023-12-29T14:43:13.552Z,9.90
2023-12-29T14:45:41.476Z,9.90
2023-12-29T14:48:08.751Z,9.80
2023-12-29T14:50:35.561Z,9.80
2023-12-29T14:53:02.700Z,9.70
2023-12-29T14:55:29.492Z,9.70
2023-12-29T14:57:56.278Z,9.70
2023-12-29T15:00:23.012Z,9.70
2023-12-29T15:02:49.706Z,9.70
2023-12-29T15:05:17.925Z,9.70
2023-12-29T15:07:44.632Z,9.60
2023-12-29T15:10:11.430Z,9.60
2023-12-29T15:12:39.845Z,9.50
2023-12-29T15:15:06.992Z,9.50
2023-12-29T15:17:33.714Z,9.50
2023-12-29T15:20:00.492Z,9.40
2023-12-29T15:22:27.550Z,9.40
2023-12-29T15:24:54.388Z,9.30
2023-12-29T15:27:21.144Z,9.80
2023-12-29T15:29:48.003Z,9.20
2023-12-29T15:32:14.779Z,9.20
2023-12-29T15:34:41.689Z,9.20
2023-12-29T15:37:08.564Z,9.20
2023-12-29T15:39:35.308Z,9.30
2023-12-29T15:42:02.041Z,9.20
2023-12-29T15:44:28.772Z,9.10
2023-12-29T15:46:58.108Z,9.10
2023-12-29T15:49:24.926Z,9.10
2023-12-29T15:51:51.780Z,9.00
2023-12-29T15:54:18.532Z,9.00
2023-12-29T15:56:45.292Z,8.90
2023-12-29T15:59:12.012Z,8.90
2023-12-29T16:01:38.842Z,8.90
2023-12-29T16:04:05.659Z,8.90
2023-12-29T16:06:32.826Z,8.90
2023-12-29T16:09:00.035Z,10.00
2023-12-29T16:11:35.762Z,8.90
2023-12-29T16:14:02.471Z,8.90
2023-12-29T16:16:31.693Z,8.90
2023-12-29T16:19:00.652Z,8.90
2023-12-29T16:21:31.136Z,8.90
2023-12-29T16:23:58.872Z,8.90
2023-12-29T16:26:31.580Z,9.00
2023-12-29T16:29:05.403Z,9.00
2023-12-29T16:31:33.611Z,9.00
2023-12-29T16:34:01.072Z,9.10
2023-12-29T16:36:27.852Z,9.10
2023-12-29T16:38:54.693Z,9.00
2023-12-29T16:41:22.287Z,9.00
2023-12-29T16:43:49.794Z,8.90
2023-12-29T16:46:16.844Z,8.80
2023-12-29T16:48:43.681Z,8.80
2023-12-29T16:51:13.640Z,8.90
2023-12-29T16:53:40.363Z,8.90
2023-12-29T16:56:07.451Z,8.90
2023-12-29T16:58:35.432Z,8.90
2023-12-29T17:01:02.244Z,8.90
2023-12-29T17:03:30.669Z,9.00
2023-12-29T17:05:57.502Z,8.90
2023-12-29T17:08:24.475Z,8.90
2023-12-29T17:10:51.318Z,8.90
2023-12-29T17:13:18.134Z,8.90
2023-12-29T17:15:45.088Z,8.90
2023-12-29T17:18:12.364Z,8.80
2023-12-29T17:20:39.278Z,8.80
2023-12-29T17:23:08.570Z,8.80
2023-12-29T17:25:42.936Z,8.60
2023-12-29T17:28:27.662Z,8.60
2023-12-29T17:31:04.298Z,8.70
2023-12-29T17:33:31.184Z,8.70
2023-12-29T17:35:57.942Z,8.80
2023-12-29T17:38:24.800Z,8.80
2023-12-29T17:40:54.735Z,8.80
2023-12-29T17:43:21.648Z,8.70
2023-12-29T17:45:48.475Z,8.70
2023-12-29T17:48:15.440Z,8.70
2023-12-29T17:50:42.326Z,8.70
2023-12-29T17:53:09.473Z,8.60
2023-12-29T17:55:36.851Z,8.60
2023-12-29T17:58:03.827Z,8.60
2023-12-29T18:00:31.473Z,8.50
2023-12-29T18:02:58.504Z,8.50
2023-12-29T18:05:25.996Z,8.50
2023-12-29T18:07:52.838Z,8.50
2023-12-29T18:10:19.780Z,8.50
2023-12-29T18:12:46.845Z,8.50
2023-12-29T18:15:15.673Z,8.60
2023-12-29T18:17:43.499Z,8.50
2023-12-29T18:20:15.315Z,8.50
2023-12-29T18:22:42.125Z,8.50
2023-12-29T18:25:09.179Z,8.30
2023-12-29T18:27:36.684Z,8.40
2023-12-29T18:30:04.227Z,8.40
2023-12-29T18:32:31.712Z,8.40
2023-12-29T18:34:59.745Z,8.50
2023-12-29T18:37:26.646Z,8.30
2023-12-29T18:39:53.504Z,8.30
2023-12-29T18:42:20.294Z,8.30
2023-12-29T18:44:47.299Z,8.40
2023-12-29T18:47:14.478Z,8.40
2023-12-29T18:49:41.702Z,8.40
2023-12-29T18:52:08.710Z,8.40
2023-12-29T18:54:35.638Z,8.40
2023-12-29T18:57:03.675Z,8.40
2023-12-29T18:59:30.620Z,8.40
2023-12-29T19:01:59.311Z,8.40
2023-12-29T19:04:27.155Z,8.40
2023-12-29T19:06:54.248Z,8.50
2023-12-29T19:09:21.674Z,8.50
2023-12-29T19:11:48.532Z,8.50
2023-12-29T19:14:16.157Z,8.50
2023-12-29T19:16:43.007Z,8.50
2023-12-29T19:19:10.011Z,8.50
2023-12-29T19:21:44.094Z,8.40
2023-12-29T19:24:11.496Z,8.50
2023-12-29T19:26:38.352Z,8.50
2023-12-29T19:29:05.088Z,8.50
2023-12-29T19:31:32.425Z,8.50
2023-12-29T19:33:59.310Z,8.40
2023-12-29T19:36:26.349Z,8.40
2023-12-29T19:38:55.160Z,8.30
2023-12-29T19:41:22.946Z,8.30
2023-12-29T19:47:15.218Z,8.50
2023-12-29T19:49:43.276Z,8.00
2023-12-29T19:52:14.033Z,9.50
2023-12-29T19:54:40.886Z,8.00
2023-12-29T19:57:08.090Z,8.00
2023-12-29T19:59:34.821Z,8.00
2023-12-29T20:02:01.655Z,7.90
2023-12-29T20:04:28.453Z,7.90
2023-12-29T20:06:55.275Z,7.80
2023-12-29T20:09:23.648Z,7.70
2023-12-29T20:11:50.412Z,7.70
2023-12-29T20:14:19.271Z,7.70
2023-12-29T20:16:45.981Z,7.70
2023-12-29T20:19:13.408Z,7.70
2023-12-29T20:21:40.327Z,7.60
2023-12-29T20:24:10.858Z,7.70
2023-12-29T20:26:38.314Z,7.80
2023-12-29T20:29:06.874Z,7.80
2023-12-29T20:31:34.813Z,7.90
2023-12-29T20:34:02.625Z,7.90
2023-12-29T20:36:29.841Z,7.90
2023-12-29T20:38:57.284Z,7.90
2023-12-29T20:41:25.514Z,7.90
2023-12-29T20:43:54.387Z,8.00
2023-12-29T20:46:22.214Z,8.10
2023-12-29T20:48:50.430Z,8.10
2023-12-29T20:51:19.928Z,8.20
2023-12-29T20:53:47.825Z,8.30
2023-12-29T20:56:15.269Z,8.30
2023-12-29T20:58:42.169Z,8.30
2023-12-29T21:01:09.612Z,8.40
2023-12-29T21:03:41.715Z,8.30
2023-12-29T21:06:09.541Z,8.50
2023-12-29T21:08:36.524Z,8.50
2023-12-29T21:11:03.402Z,8.40
2023-12-29T21:13:31.295Z,8.40
2023-12-29T21:15:58.508Z,8.50
2023-12-29T21:18:25.463Z,8.50
2023-12-29T21:20:52.884Z,8.40
2023-12-29T21:23:22.269Z,8.40
2023-12-29T21:25:49.085Z,8.40
2023-12-29T21:28:15.873Z,8.40
2023-12-29T21:30:42.820Z,8.40
2023-12-29T21:33:09.903Z,8.40
2023-12-29T21:35:37.139Z,8.40
2023-12-29T21:38:04.320Z,8.40
2023-12-29T21:40:31.306Z,8.30
2023-12-29T21:42:58.298Z,8.30
2023-12-29T21:45:25.404Z,8.30
2023-12-29T21:47:52.719Z,8.40
2023-12-29T21:50:19.620Z,8.30
2023-12-29T21:52:46.572Z,8.30
2023-12-29T21:55:13.471Z,8.30
2023-12-29T21:57:40.490Z,8.40
2023-12-29T22:00:07.930Z,8.30
2023-12-29T22:02:34.727Z,8.30
2023-12-29T22:05:01.724Z,8.40
2023-12-29T22:07:28.696Z,8.30
2023-12-29T22:09:55.534Z,8.40
2023-12-29T22:12:22.269Z,8.40
2023-12-29T22:14:49.008Z,8.40
2023-12-29T22:17:15.771Z,8.40
2023-12-29T22:19:42.882Z,8.40
2023-12-29T22:22:09.797Z,8.40
2023-12-29T22:24:37.153Z,8.40
2023-12-29T22:27:04.104Z,8.30
2023-12-29T22:29:30.846Z,8.30
2023-12-29T22:31:57.802Z,8.30
2023-12-29T22:34:25.420Z,8.30
2023-12-29T22:36:52.619Z,8.30
2023-12-29T22:39:19.391Z,8.30
2023-12-29T22:41:46.267Z,8.30
2023-12-29T22:44:14.317Z,8.30
2023-12-29T22:46:41.149Z,8.30
2023-12-29T22:49:08.949Z,8.20
2023-12-29T22:51:35.907Z,8.10
2023-12-29T22:54:02.731Z,8.10
2023-12-29T22:56:29.542Z,8.10
2023-12-29T22:58:56.392Z,8.10
2023-12-29T23:01:24.247Z,8.10
2023-12-29T23:03:51.232Z,8.00
2023-12-29T23:06:18.150Z,8.00
2023-12-29T23:08:44.983Z,8.00
2023-12-29T23:11:11.853Z,8.00
2023-12-29T23:13:38.617Z,8.00
2023-12-29T23:16:05.972Z,7.90
2023-12-29T23:18:32.832Z,7.90
2023-12-29T23:20:59.676Z,7.90
2023-12-29T23:23:26.532Z,7.90
2023-12-29T23:25:54.409Z,7.90
2023-12-29T23:28:21.471Z,7.90
2023-12-29T23:30:48.416Z,7.80
2023-12-29T23:33:15.387Z,7.80
2023-12-29T23:35:42.502Z,7.70
2023-12-29T23:38:10.665Z,7.70
2023-12-29T23:40:38.006Z,7.80
2023-12-29T23:43:05.076Z,7.70
2023-12-29T23:45:32.399Z,7.70
2023-12-29T23:47:59.295Z,7.70
2023-12-29T23:50:26.065Z,7.60
2023-12-29T23:52:53.967Z,7.70
2023-12-29T23:55:24.053Z,7.70
2023-12-29T23:57:51.156Z,7.70
